Time;durP1;ratioP1;P1;durP2;ratioP2;P2;SDS_P1;SDS_P2;PMS_P1;PMS_P2;Temp;Humidity;BMP_temperature;BMP_pressure;BME280_temperature;BME280_humidity;BME280_pressure;Samples;Min_cycle;Max_cycle;Signal;HPM_P1;HPM_P2
2023/03/30 00:00:00;;;;;;;4.82;2.30;;;12.60;99.90;;;;;;4971682;28;20208;-57
2023/03/30 00:02:29;;;;;;;5.40;2.67;;;12.70;99.90;;;;;;4970814;28;20170;-56
2023/03/30 00:05:01;;;;;;;5.57;2.92;;;12.70;99.90;;;;;;4971173;28;20252;-55
2023/03/30 00:07:30;;;;;;;14.85;6.47;;;12.60;99.90;;;;;;4971459;28;20262;-53
2023/03/30 00:09:57;;;;;;;7.45;2.50;;;12.70;99.90;;;;;;4985475;28;20231;-57
2023/03/30 00:12:23;;;;;;;3.00;2.30;;;12.60;99.90;;;;;;4970873;28;20169;-57
2023/03/30 00:14:48;;;;;;;10.90;2.95;;;12.60;99.90;;;;;;4970755;28;20583;-55
2023/03/30 00:17:14;;;;;;;5.03;2.45;;;12.60;99.90;;;;;;4970742;28;20177;-57
2023/03/30 00:19:40;;;;;;;7.57;2.88;;;;;;;;;;4971003;28;20169;-57
2023/03/30 00:22:08;;;;;;;7.07;2.67;;;12.70;99.90;;;;;;4970699;28;20177;-57
2023/03/30 00:24:35;;;;;;;9.05;2.70;;;12.60;99.90;;;;;;4970969;28;20598;-43
2023/03/30 00:27:01;;;;;;;6.78;2.85;;;12.60;99.90;;;;;;4971165;28;20212;-55
2023/03/30 00:29:27;;;;;;;12.88;5.18;;;12.50;99.90;;;;;;4970533;28;20241;-47
2023/03/30 00:31:52;;;;;;;5.88;2.65;;;12.60;99.90;;;;;;4970628;28;20191;-47
2023/03/30 00:34:18;;;;;;;5.70;3.15;;;12.80;99.90;;;;;;4970512;28;20180;-44
2023/03/30 00:36:45;;;;;;;5.43;2.08;;;;;;;;;;4970597;28;20248;-48
2023/03/30 00:39:11;;;;;;;9.20;2.72;;;13.20;99.90;;;;;;4984186;28;20176;-46
2023/03/30 00:41:37;;;;;;;10.27;3.03;;;13.40;99.90;;;;;;4989802;28;20173;-47
2023/03/30 00:44:07;;;;;;;5.75;2.25;;;13.40;99.90;;;;;;4990190;28;20177;-46
2023/03/30 00:46:32;;;;;;;11.77;2.90;;;13.50;99.90;;;;;;4990165;28;20203;-49
2023/03/30 00:49:05;;;;;;;6.68;3.35;;;13.50;99.90;;;;;;4989729;28;20239;-44
2023/03/30 00:51:37;;;;;;;8.05;2.60;;;13.60;99.90;;;;;;4990039;28;20161;-44
2023/03/30 00:54:11;;;;;;;10.77;3.25;;;13.30;99.90;;;;;;4990058;28;20260;-47
2023/03/30 00:56:38;;;;;;;8.73;4.03;;;13.20;99.90;;;;;;4989835;28;20241;-48
2023/03/30 00:59:04;;;;;;;6.78;2.85;;;;;;;;;;4973748;28;20173;-43
2023/03/30 01:01:37;;;;;;;8.40;2.88;;;13.10;99.90;;;;;;4970104;28;20646;-47
2023/03/30 01:04:04;;;;;;;11.13;2.78;;;13.00;99.90;;;;;;4970308;28;20267;-44
2023/03/30 01:06:31;;;;;;;10.07;3.20;;;12.90;99.90;;;;;;4970046;28;20212;-43
2023/03/30 01:08:57;;;;;;;7.20;2.85;;;13.00;99.90;;;;;;4969749;28;20227;-44
2023/03/30 01:11:23;;;;;;;11.05;2.95;;;12.90;99.90;;;;;;4970180;28;20161;-43
2023/03/30 01:13:55;;;;;;;5.38;2.22;;;13.00;99.90;;;;;;4970201;28;20177;-43
2023/03/30 01:16:31;;;;;;;8.77;2.40;;;13.10;99.90;;;;;;4970061;28;20170;-43
2023/03/30 01:19:22;;;;;;;12.32;2.85;;;13.30;99.90;;;;;;4986384;28;20205;-43
2023/03/30 01:22:11;;;;;;;6.78;2.42;;;13.30;99.90;;;;;;4989172;28;20236;-43
2023/03/30 01:24:57;;;;;;;9.23;2.30;;;13.60;99.90;;;;;;4994429;28;20181;-43
2023/03/30 01:27:45;;;;;;;7.55;2.25;;;13.90;99.90;;;;;;4989005;28;20670;-43
2023/03/30 01:30:31;;;;;;;4.60;2.30;;;14.00;99.90;;;;;;4989570;28;20181;-44
2023/03/30 01:33:00;;;;;;;9.90;3.13;;;14.00;99.90;;;;;;4989262;28;20538;-43
2023/03/30 01:35:33;;;;;;;6.40;2.80;;;;;;;;;;4987624;28;20173;-44
2023/03/30 01:37:59;;;;;;;13.05;3.45;;;;;;;;;;4982241;28;20174;-43
2023/03/30 01:40:52;;;;;;;12.30;3.25;;;14.10;99.90;;;;;;4969772;28;20577;-45
2023/03/30 01:43:35;;;;;;;12.38;4.40;;;14.20;99.90;;;;;;4970082;28;20503;-43
2023/03/30 01:46:31;;;;;;;18.10;4.78;;;14.20;99.90;;;;;;4970097;28;20166;-44
2023/03/30 01:49:09;;;;;;;17.00;3.97;;;14.20;99.90;;;;;;4969447;28;20228;-43
2023/03/30 01:51:41;;;;;;;16.25;5.20;;;14.30;99.90;;;;;;4972784;28;20246;-43
2023/03/30 01:54:12;;;;;;;14.20;4.80;;;14.30;99.90;;;;;;4972988;28;20538;-44
2023/03/30 01:56:45;;;;;;;15.18;4.97;;;14.30;99.90;;;;;;4973240;28;20181;-44
2023/03/30 01:59:17;;;;;;;12.50;3.90;;;14.30;99.90;;;;;;4972954;28;20257;-43
2023/03/30 02:01:48;;;;;;;12.35;2.85;;;14.30;99.90;;;;;;4972978;28;20166;-43
2023/03/30 02:04:17;;;;;;;6.43;3.20;;;14.30;99.90;;;;;;4972792;28;20272;-43
2023/03/30 02:06:49;;;;;;;10.65;2.75;;;14.30;99.90;;;;;;4972843;28;20219;-43
2023/03/30 02:09:19;;;;;;;7.40;3.40;;;14.40;99.90;;;;;;4988925;28;20231;-43
2023/03/30 02:11:49;;;;;;;10.32;4.15;;;14.40;99.90;;;;;;4992241;28;20204;-43
2023/03/30 02:14:18;;;;;;;9.52;3.78;;;14.50;99.90;;;;;;4992462;28;20196;-43
2023/03/30 02:16:46;;;;;;;13.38;3.88;;;14.50;99.90;;;;;;4991828;28;20230;-43
2023/03/30 02:19:12;;;;;;;11.80;4.30;;;14.60;99.90;;;;;;4992099;28;20173;-43
2023/03/30 02:21:38;;;;;;;14.85;3.78;;;14.60;99.90;;;;;;4991956;28;20215;-43
2023/03/30 02:24:07;;;;;;;7.35;2.70;;;14.60;99.90;;;;;;4992102;28;20540;-43
2023/03/30 02:26:34;;;;;;;10.02;2.80;;;14.60;99.90;;;;;;4992587;28;20172;-43
2023/03/30 02:29:00;;;;;;;15.02;3.45;;;14.50;99.90;;;;;;4992152;28;20668;-44
2023/03/30 02:31:25;;;;;;;10.13;3.13;;;14.60;99.90;;;;;;4990739;28;20176;-43
2023/03/30 02:34:12;;;;;;;14.35;3.40;;;14.50;99.90;;;;;;4991827;28;20714;-43
2023/03/30 02:37:08;;;;;;;9.52;2.67;;;14.40;99.90;;;;;;4973698;28;20170;-43
2023/03/30 02:39:38;;;;;;;10.27;2.70;;;14.20;99.90;;;;;;4972399;28;20214;-45
2023/03/30 02:42:17;;;;;;;10.93;2.90;;;14.10;99.90;;;;;;4972244;28;20661;-43
2023/03/30 02:45:02;;;;;;;6.25;2.40;;;14.10;99.90;;;;;;4972292;28;20199;-49
2023/03/30 02:47:51;;;;;;;14.02;3.40;;;14.20;99.90;;;;;;4972203;28;20275;-43
2023/03/30 02:50:45;;;;;;;12.13;4.28;;;14.00;99.90;;;;;;4977154;28;20217;-43
2023/03/30 02:53:32;;;;;;;13.63;5.82;;;14.00;99.90;;;;;;4972345;28;20234;-46
2023/03/30 02:56:18;;;;;;;18.50;5.40;;;14.00;99.90;;;;;;4971785;28;20268;-44
2023/03/30 02:58:59;;;;;;;24.20;5.97;;;14.00;99.90;;;;;;4972410;28;20212;-47
2023/03/30 03:01:34;;;;;;;15.82;5.85;;;14.00;99.90;;;;;;4971718;28;20178;-43
2023/03/30 03:04:02;;;;;;;16.27;4.75;;;14.00;99.90;;;;;;4972613;28;20169;-51
2023/03/30 03:06:28;;;;;;;9.15;3.05;;;14.00;99.90;;;;;;4972201;28;20166;-55
2023/03/30 03:08:55;;;;;;;12.32;2.70;;;14.00;99.90;;;;;;4971729;28;20241;-44
2023/03/30 03:11:21;;;;;;;9.07;2.20;;;;;;;;;;4972156;28;20205;-46
2023/03/30 03:13:47;;;;;;;6.03;2.53;;;13.90;99.90;;;;;;4971791;28;20212;-43
2023/03/30 03:16:13;;;;;;;5.25;2.13;;;14.00;99.90;;;;;;4971806;28;20201;-43
2023/03/30 03:18:40;;;;;;;3.83;2.30;;;14.10;99.90;;;;;;4971387;28;20177;-43
2023/03/30 03:21:07;;;;;;;10.68;3.55;;;14.10;99.90;;;;;;4971943;28;20532;-49
2023/03/30 03:23:34;;;;;;;11.55;4.03;;;14.00;99.90;;;;;;4971497;28;20169;-43
2023/03/30 03:26:00;;;;;;;13.50;4.63;;;;;;;;;;4985989;28;20181;-43
2023/03/30 03:28:27;;;;;;;20.60;5.25;;;13.90;99.90;;;;;;4989172;28;20265;-43
2023/03/30 03:30:53;;;;;;;13.75;5.63;;;13.80;99.90;;;;;;4991032;28;20169;-44
2023/03/30 03:33:19;;;;;;;17.85;6.40;;;13.70;99.90;;;;;;4991290;28;20179;-43
2023/03/30 03:35:45;;;;;;;16.70;5.93;;;13.60;99.90;;;;;;4990940;28;20165;-43
2023/03/30 03:38:12;;;;;;;16.85;4.80;;;13.40;99.90;;;;;;4990840;28;20636;-45
2023/03/30 03:40:38;;;;;;;15.75;3.88;;;13.40;99.90;;;;;;4990768;28;20705;-44
2023/03/30 03:43:04;;;;;;;11.10;3.60;;;13.30;99.90;;;;;;4980148;28;20174;-43
2023/03/30 03:45:30;;;;;;;10.65;3.53;;;13.20;99.90;;;;;;4971929;28;20177;-47
2023/03/30 03:47:55;;;;;;;9.07;2.75;;;13.20;99.90;;;;;;4971262;28;20280;-45
2023/03/30 03:50:21;;;;;;;7.55;2.28;;;13.10;99.90;;;;;;4972430;28;20275;-43
2023/03/30 03:52:47;;;;;;;16.88;5.03;;;13.00;99.90;;;;;;4990685;28;20559;-44
2023/03/30 03:55:12;;;;;;;10.00;2.85;;;13.00;99.90;;;;;;4990659;28;20571;-44
2023/03/30 03:57:39;;;;;;;6.22;2.72;;;12.90;99.90;;;;;;4990501;28;20171;-43
2023/03/30 04:00:14;;;;;;;4.97;2.38;;;13.00;99.90;;;;;;4990725;28;20221;-45
2023/03/30 04:02:40;;;;;;;9.05;2.40;;;12.90;99.90;;;;;;4990255;28;20169;-45
2023/03/30 04:05:06;;;;;;;6.20;2.25;;;13.00;99.90;;;;;;4990558;28;20184;-44
2023/03/30 04:07:33;;;;;;;19.50;5.35;;;13.00;99.90;;;;;;4990691;28;20213;-47
2023/03/30 04:09:58;;;;;;;19.65;6.65;;;13.00;99.90;;;;;;4991029;28;20267;-43
2023/03/30 04:12:24;;;;;;;13.25;4.18;;;13.10;99.90;;;;;;4989990;28;20199;-43
2023/03/30 04:14:50;;;;;;;14.88;4.43;;;13.20;99.90;;;;;;4990146;28;20192;-43
2023/03/30 04:17:15;;;;;;;13.32;5.18;;;13.30;99.90;;;;;;4990258;28;20685;-43
2023/03/30 04:19:41;;;;;;;14.70;5.30;;;13.30;99.90;;;;;;4990294;28;20173;-43
2023/03/30 04:22:06;;;;;;;13.45;5.10;;;13.50;99.90;;;;;;4974781;28;20188;-43
2023/03/30 04:24:34;;;;;;;17.58;4.60;;;;;;;;;;4970956;28;20291;-42
2023/03/30 04:27:00;;;;;;;16.65;4.10;;;13.50;99.90;;;;;;4970816;28;20171;-43
2023/03/30 04:29:26;;;;;;;13.93;4.18;;;13.40;99.90;;;;;;4970325;28;20212;-43
2023/03/30 04:31:51;;;;;;;11.20;3.42;;;13.40;99.90;;;;;;4970707;28;20165;-43
2023/03/30 04:34:20;;;;;;;6.07;2.50;;;;;;;;;;4970589;28;20252;-44
2023/03/30 04:36:46;;;;;;;8.65;2.00;;;13.60;99.90;;;;;;4970693;28;20251;-43
2023/03/30 04:39:12;;;;;;;6.45;1.88;;;13.70;99.90;;;;;;4970563;28;20248;-44
2023/03/30 04:41:40;;;;;;;6.72;2.08;;;13.80;99.90;;;;;;4970739;28;20595;-43
2023/03/30 04:44:08;;;;;;;5.95;1.80;;;13.80;99.90;;;;;;4970733;28;20186;-43
2023/03/30 04:46:35;;;;;;;6.63;2.00;;;13.70;99.90;;;;;;4970359;28;20192;-43
2023/03/30 04:49:01;;;;;;;4.57;2.00;;;13.70;99.90;;;;;;4970607;28;20282;-43
2023/03/30 04:51:27;;;;;;;9.32;2.50;;;13.70;99.90;;;;;;4980630;28;20536;-43
2023/03/30 04:53:53;;;;;;;9.73;1.98;;;13.70;99.90;;;;;;4989235;28;20180;-43
2023/03/30 04:56:19;;;;;;;8.75;2.40;;;13.70;99.90;;;;;;4971999;28;20181;-43
2023/03/30 04:58:44;;;;;;;7.43;2.38;;;13.60;99.90;;;;;;4970074;28;20173;-43
2023/03/30 05:01:10;;;;;;;6.78;2.45;;;;;;;;;;4970413;28;20173;-44
2023/03/30 05:03:36;;;;;;;5.47;2.65;;;13.60;99.90;;;;;;4970060;28;20181;-43
2023/03/30 05:06:02;;;;;;;7.03;2.53;;;;;;;;;;4988049;28;20204;-43
2023/03/30 05:08:28;;;;;;;10.68;2.40;;;13.70;99.90;;;;;;4989642;28;20303;-43
2023/03/30 05:10:54;;;;;;;5.85;2.30;;;;;;;;;;4989494;28;20268;-44
2023/03/30 05:13:19;;;;;;;6.30;2.20;;;13.70;99.90;;;;;;4989669;28;20177;-48
2023/03/30 05:15:53;;;;;;;6.13;2.40;;;13.70;99.90;;;;;;4989517;28;20537;-43
2023/03/30 05:18:19;;;;;;;4.07;1.83;;;13.80;99.90;;;;;;4989689;28;20176;-43
2023/03/30 05:20:45;;;;;;;4.57;1.95;;;13.80;99.90;;;;;;4985503;28;20173;-43
2023/03/30 05:23:10;;;;;;;7.95;2.60;;;13.70;99.90;;;;;;4977241;28;20176;-44
2023/03/30 05:25:36;;;;;;;10.75;2.60;;;13.70;99.90;;;;;;4992299;28;20261;-43
2023/03/30 05:28:02;;;;;;;10.35;2.35;;;;;;;;;;4991501;28;20231;-43
2023/03/30 05:30:28;;;;;;;10.05;2.15;;;13.60;99.90;;;;;;4993378;28;20271;-43
2023/03/30 05:32:54;;;;;;;4.57;2.08;;;13.60;99.90;;;;;;4992658;28;20169;-43
2023/03/30 05:35:20;;;;;;;8.35;2.35;;;13.70;99.90;;;;;;4992992;28;20184;-43
2023/03/30 05:37:47;;;;;;;15.02;3.05;;;13.70;99.90;;;;;;4991766;28;20548;-46
2023/03/30 05:40:13;;;;;;;4.97;2.53;;;13.70;99.90;;;;;;4984075;28;20223;-44
2023/03/30 05:42:38;;;;;;;9.02;2.05;;;13.70;99.90;;;;;;4973170;28;20178;-47
2023/03/30 05:45:05;;;;;;;11.77;2.05;;;13.80;99.90;;;;;;4973148;28;20178;-44
2023/03/30 05:47:30;;;;;;;3.70;1.92;;;13.80;99.90;;;;;;4973446;28;20165;-46
2023/03/30 05:49:56;;;;;;;2.45;1.50;;;13.80;99.90;;;;;;4973057;28;20219;-47
2023/03/30 05:52:22;;;;;;;7.20;2.88;;;13.80;99.90;;;;;;4972988;28;20201;-47
2023/03/30 05:54:48;;;;;;;4.88;2.33;;;13.80;99.90;;;;;;4973255;28;20408;-44
2023/03/30 05:57:13;;;;;;;6.20;2.03;;;13.90;99.90;;;;;;4972871;28;20511;-43
2023/03/30 05:59:39;;;;;;;10.20;2.08;;;14.00;99.90;;;;;;4972872;28;20166;-44
2023/03/30 06:02:05;;;;;;;4.10;1.70;;;;;;;;;;4985909;28;20185;-44
2023/03/30 06:04:32;;;;;;;4.72;1.88;;;;;;;;;;4991745;28;20176;-46
2023/03/30 06:06:58;;;;;;;3.67;1.73;;;;;;;;;;4990864;28;20169;-44
2023/03/30 06:09:25;;;;;;;2.47;1.63;;;;;;;;;;4990335;28;20266;-44
2023/03/30 06:11:51;;;;;;;6.05;2.30;;;;;;;;;;4990696;28;20165;-44
2023/03/30 06:14:17;;;;;;;5.50;1.70;;;;;;;;;;4990591;28;20175;-44
2023/03/30 06:16:43;;;;;;;5.57;2.33;;;14.00;99.90;;;;;;4990609;28;20169;-44
2023/03/30 06:19:08;;;;;;;3.65;1.75;;;14.00;99.90;;;;;;4990525;28;20185;-47
2023/03/30 06:21:34;;;;;;;5.57;1.83;;;13.90;99.90;;;;;;4990442;28;20177;-43
2023/03/30 06:24:00;;;;;;;4.95;2.00;;;14.00;99.90;;;;;;4991115;28;20187;-44
2023/03/30 06:26:26;;;;;;;5.03;1.80;;;;;;;;;;4990668;28;20196;-46
2023/03/30 06:28:52;;;;;;;4.70;2.05;;;14.00;99.90;;;;;;4981312;28;20629;-45
2023/03/30 06:31:18;;;;;;;5.00;1.58;;;14.00;99.90;;;;;;4959561;28;20213;-47
2023/03/30 06:33:43;;;;;;;6.70;2.28;;;14.10;99.90;;;;;;4951935;28;20182;-46
2023/03/30 06:36:11;;;;;;;8.45;2.55;;;14.20;99.90;;;;;;4951268;28;20170;-45
2023/03/30 06:38:36;;;;;;;7.47;2.90;;;;;;;;;;4951648;28;20170;-45
2023/03/30 06:41:05;;;;;;;2.72;1.65;;;14.30;99.90;;;;;;4951571;28;20295;-43
2023/03/30 06:43:31;;;;;;;7.75;2.28;;;14.30;99.90;;;;;;4951528;28;20177;-43
2023/03/30 06:45:57;;;;;;;3.63;1.75;;;14.30;99.90;;;;;;4952278;29;20538;-43
2023/03/30 06:48:23;;;;;;;7.70;1.90;;;14.40;99.90;;;;;;4963577;28;20622;-40
2023/03/30 06:50:50;;;;;;;8.07;2.53;;;14.50;99.90;;;;;;4990077;28;20172;-42
2023/03/30 06:53:16;;;;;;;7.97;2.03;;;14.70;99.90;;;;;;4990261;28;20173;-43
2023/03/30 06:55:42;;;;;;;3.60;1.63;;;;;;;;;;4989917;28;20535;-45
2023/03/30 06:58:08;;;;;;;5.55;2.13;;;;;;;;;;4972760;28;20174;-44
2023/03/30 07:00:34;;;;;;;2.70;1.83;;;14.80;99.90;;;;;;4970509;28;20180;-44
2023/03/30 07:02:59;;;;;;;6.03;2.30;;;14.80;99.90;;;;;;4970839;28;20533;-44
2023/03/30 07:05:28;;;;;;;8.90;2.83;;;14.70;99.90;;;;;;4970294;28;20180;-43
2023/03/30 07:07:55;;;;;;;4.75;1.90;;;14.70;99.90;;;;;;4974190;28;20208;-44
2023/03/30 07:10:21;;;;;;;2.92;1.67;;;14.70;99.90;;;;;;4989745;28;20185;-44
2023/03/30 07:12:47;;;;;;;8.48;1.98;;;;;;;;;;4989648;28;20181;-44
2023/03/30 07:15:14;;;;;;;9.68;2.45;;;14.70;99.90;;;;;;4990082;28;20172;-43
2023/03/30 07:17:40;;;;;;;7.55;2.15;;;;;;;;;;4974371;28;20177;-55
2023/03/30 07:20:07;;;;;;;6.65;1.80;;;14.70;99.90;;;;;;4988448;28;20199;-55
2023/03/30 07:22:34;;;;;;;5.47;2.05;;;14.70;99.90;;;;;;4985045;28;20527;-52
2023/03/30 07:25:00;;;;;;;7.15;1.80;;;14.80;99.90;;;;;;4970827;28;20286;-54
2023/03/30 07:27:26;;;;;;;7.53;2.10;;;14.70;99.90;;;;;;4970804;28;20725;-53
2023/03/30 07:29:52;;;;;;;4.72;1.70;;;14.70;99.90;;;;;;4970051;28;20205;-54
2023/03/30 07:32:19;;;;;;;3.03;2.03;;;14.70;99.90;;;;;;4985024;28;20178;-53
2023/03/30 07:34:45;;;;;;;3.60;1.60;;;14.70;99.90;;;;;;4989294;28;20659;-54
2023/03/30 07:37:11;;;;;;;5.05;1.63;;;14.70;99.90;;;;;;4983456;28;20272;-55
2023/03/30 07:39:37;;;;;;;6.18;1.60;;;14.80;99.90;;;;;;4970525;28;20174;-52
2023/03/30 07:42:03;;;;;;;6.75;2.17;;;14.70;99.90;;;;;;4971394;28;20200;-52
2023/03/30 07:44:29;;;;;;;5.15;1.58;;;14.80;99.90;;;;;;4971767;28;20193;-52
2023/03/30 07:46:56;;;;;;;3.65;1.42;;;14.90;99.90;;;;;;4971228;28;20625;-52
2023/03/30 07:49:21;;;;;;;3.28;1.60;;;15.00;99.90;;;;;;4969997;28;20205;-51
2023/03/30 07:51:47;;;;;;;2.10;1.60;;;15.00;99.90;;;;;;4971284;28;20215;-47
2023/03/30 07:54:13;;;;;;;4.22;1.75;;;15.00;99.90;;;;;;4971221;28;20170;-52
2023/03/30 07:56:39;;;;;;;4.80;1.40;;;15.00;99.90;;;;;;4971181;28;20522;-52
2023/03/30 07:59:06;;;;;;;4.35;1.65;;;15.00;99.90;;;;;;4971109;28;20218;-52
2023/03/30 08:01:33;;;;;;;3.60;1.70;;;15.00;99.90;;;;;;4971369;28;20178;-52
2023/03/30 08:03:59;;;;;;;4.47;1.77;;;15.10;99.90;;;;;;4971489;28;20252;-51
2023/03/30 08:06:26;;;;;;;3.42;1.75;;;15.20;99.90;;;;;;4971239;28;20177;-51
2023/03/30 08:08:51;;;;;;;2.17;1.52;;;15.00;99.90;;;;;;4988767;28;20216;-51
2023/03/30 08:11:17;;;;;;;3.17;1.33;;;14.70;99.90;;;;;;4990443;28;20655;-51
2023/03/30 08:13:43;;;;;;;5.78;1.52;;;14.40;99.90;;;;;;4990539;28;20176;-43
2023/03/30 08:16:09;;;;;;;11.52;1.88;;;14.20;99.90;;;;;;4990506;28;20161;-43
2023/03/30 08:18:40;;;;;;;6.05;2.22;;;14.10;99.90;;;;;;4990584;28;20168;-43
2023/03/30 08:21:06;;;;;;;4.00;1.33;;;13.90;99.90;;;;;;4990520;28;20181;-42
2023/03/30 08:23:32;;;;;;;3.17;1.50;;;13.80;99.90;;;;;;4990170;28;20171;-43
2023/03/30 08:26:01;;;;;;;3.40;1.55;;;13.70;99.90;;;;;;4990589;28;20532;-43
2023/03/30 08:28:27;;;;;;;6.03;1.80;;;13.70;99.90;;;;;;4972218;28;20209;-46
2023/03/30 08:30:53;;;;;;;7.63;1.77;;;13.80;99.90;;;;;;4970656;28;20172;-45
2023/03/30 08:33:19;;;;;;;8.98;2.13;;;14.10;99.90;;;;;;4970930;28;20177;-43
2023/03/30 08:35:48;;;;;;;5.05;1.50;;;14.40;99.90;;;;;;4970572;28;20200;-43
2023/03/30 08:38:16;;;;;;;4.25;1.38;;;14.50;99.90;;;;;;4970778;28;20205;-43
2023/03/30 08:40:46;;;;;;;6.75;1.67;;;14.70;99.90;;;;;;4970764;28;20177;-43
2023/03/30 08:43:30;;;;;;;7.03;1.60;;;15.10;99.90;;;;;;4970781;28;20528;-44
2023/03/30 08:45:59;;;;;;;3.70;2.30;;;15.20;99.90;;;;;;4970890;28;20169;-43
2023/03/30 08:48:31;;;;;;;6.18;1.67;;;15.00;99.90;;;;;;4989805;28;20196;-42
2023/03/30 08:50:59;;;;;;;6.95;1.80;;;14.90;99.90;;;;;;4990442;28;20200;-43
2023/03/30 08:53:28;;;;;;;5.78;1.90;;;15.20;99.90;;;;;;4990198;28;20179;-43
2023/03/30 08:56:00;;;;;;;4.07;1.70;;;15.40;99.90;;;;;;4989339;28;20191;-45
2023/03/30 08:58:47;;;;;;;3.03;1.70;;;15.70;99.90;;;;;;4990087;28;20187;-45
2023/03/30 09:01:36;;;;;;;5.10;1.90;;;15.60;99.90;;;;;;4989910;28;20164;-43
2023/03/30 09:04:15;;;;;;;3.90;1.88;;;15.60;99.90;;;;;;4989648;28;20251;-43
2023/03/30 09:06:53;;;;;;;4.78;1.50;;;14.90;99.90;;;;;;4989859;28;20264;-43
2023/03/30 09:09:22;;;;;;;2.45;1.30;;;14.00;99.90;;;;;;4989275;28;20227;-43
2023/03/30 09:11:55;;;;;;;3.78;1.13;;;13.60;99.90;;;;;;4989684;28;20300;-43
2023/03/30 09:14:45;;;;;;;3.85;1.52;;;13.40;99.90;;;;;;4989551;28;20240;-50
2023/03/30 09:17:17;;;;;;;4.70;1.38;;;13.20;99.90;;;;;;4979675;28;20188;-43
2023/03/30 09:19:55;;;;;;;2.58;0.95;;;13.20;99.90;;;;;;4970054;28;20641;-43
2023/03/30 09:22:28;;;;;;;5.68;1.40;;;13.00;99.90;;;;;;4970244;28;20176;-43
2023/03/30 09:24:54;;;;;;;3.30;1.00;;;12.80;99.90;;;;;;4970174;28;20528;-44
2023/03/30 09:27:41;;;;;;;3.10;1.00;;;12.80;99.90;;;;;;4969896;28;20166;-43
2023/03/30 09:30:23;;;;;;;8.02;1.20;;;12.40;99.90;;;;;;4969739;28;20755;-46
2023/03/30 09:32:58;;;;;;;10.60;1.52;;;12.20;99.90;;;;;;4969857;28;20174;-46
2023/03/30 09:35:33;;;;;;;4.68;2.03;;;11.90;99.90;;;;;;4970063;28;20204;-50
2023/03/30 09:37:59;;;;;;;5.72;2.10;;;;;;;;;;4970163;28;20177;-46
2023/03/30 09:40:25;;;;;;;4.55;1.50;;;11.70;99.90;;;;;;4970026;28;20618;-47
2023/03/30 09:43:18;;;;;;;5.43;1.65;;;11.70;99.90;;;;;;4970048;28;20204;-47
2023/03/30 09:45:44;;;;;;;7.90;1.77;;;11.60;99.90;;;;;;4988211;28;20264;-44
2023/03/30 09:48:09;;;;;;;3.75;1.27;;;11.60;99.90;;;;;;4968731;28;20242;-48
2023/03/30 09:50:41;;;;;;;9.70;2.63;;;11.50;99.90;;;;;;4969641;28;20177;-51
2023/03/30 09:53:24;;;;;;;5.22;2.15;;;11.50;99.90;;;;;;4969680;28;20173;-49
2023/03/30 09:56:06;;;;;;;6.32;2.28;;;11.50;99.90;;;;;;4969521;28;20165;-49
2023/03/30 09:58:33;;;;;;;6.72;2.33;;;11.60;99.90;;;;;;4969597;28;20166;-50
2023/03/30 10:01:17;;;;;;;5.75;1.80;;;11.60;99.90;;;;;;4969904;28;20665;-50
2023/03/30 10:03:58;;;;;;;5.18;2.10;;;11.70;99.90;;;;;;4969709;28;20558;-51
2023/03/30 10:06:24;;;;;;;5.30;2.33;;;11.70;99.90;;;;;;4969469;28;20157;-45
2023/03/30 10:08:54;;;;;;;6.50;2.20;;;11.80;99.90;;;;;;4969187;28;20275;-47
2023/03/30 10:11:41;;;;;;;7.25;2.58;;;11.90;99.90;;;;;;4970471;28;20185;-48
2023/03/30 10:14:32;;;;;;;6.97;3.22;;;12.10;99.90;;;;;;4972604;28;20185;-49
2023/03/30 10:16:59;;;;;;;7.75;3.25;;;12.20;99.90;;;;;;5000972;28;20682;-48
2023/03/30 10:19:25;;;;;;;3.63;1.50;;;12.30;99.90;;;;;;4992378;28;20191;-45
2023/03/30 10:21:57;;;;;;;4.50;1.50;;;12.40;99.90;;;;;;4991866;28;20169;-46
2023/03/30 10:24:26;;;;;;;2.72;0.88;;;12.50;99.90;;;;;;4991919;28;20181;-45
2023/03/30 10:26:56;;;;;;;5.75;1.60;;;12.70;99.90;;;;;;4991851;28;20176;-48
2023/03/30 10:29:24;;;;;;;3.42;1.50;;;12.90;99.90;;;;;;4992053;28;20220;-45
2023/03/30 10:32:00;;;;;;;2.05;1.20;;;13.10;99.90;;;;;;4991926;28;20180;-50
2023/03/30 10:34:37;;;;;;;1.88;1.00;;;13.20;99.90;;;;;;4992285;28;20168;-49
2023/03/30 10:37:26;;;;;;;2.15;1.10;;;13.30;99.90;;;;;;4992108;28;20177;-46
2023/03/30 10:39:53;;;;;;;2.22;1.30;;;13.40;99.90;;;;;;4991798;28;20165;-45
2023/03/30 10:42:23;;;;;;;3.17;1.40;;;13.50;99.90;;;;;;4991759;28;20231;-46
2023/03/30 10:44:59;;;;;;;3.80;1.50;;;13.60;99.90;;;;;;4991747;28;20185;-43
2023/03/30 10:47:45;;;;;;;4.88;1.85;;;13.60;99.90;;;;;;4977159;28;20672;-45
2023/03/30 10:50:26;;;;;;;4.22;1.65;;;13.90;99.90;;;;;;4972148;28;20213;-43
2023/03/30 10:53:20;;;;;;;2.42;1.35;;;14.00;99.90;;;;;;4972420;28;20170;-47
2023/03/30 10:56:22;;;;;;;3.67;1.92;;;14.30;99.90;;;;;;4972185;28;20170;-47
2023/03/30 10:59:05;;;;;;;3.28;2.03;;;14.40;99.90;;;;;;4972379;28;20557;-43
2023/03/30 11:01:51;;;;;;;4.00;1.95;;;14.60;99.90;;;;;;4972128;28;20177;-45
2023/03/30 11:04:35;;;;;;;4.18;1.38;;;14.70;99.90;;;;;;4971926;28;20529;-44
2023/03/30 11:07:04;;;;;;;3.72;0.90;;;14.60;99.90;;;;;;4975183;28;20174;-43
2023/03/30 11:09:35;;;;;;;4.28;1.13;;;14.40;99.90;;;;;;4971548;28;20209;-43
2023/03/30 11:12:09;;;;;;;3.40;1.70;;;14.30;99.90;;;;;;4970073;28;20178;-44
2023/03/30 11:14:49;;;;;;;4.57;1.17;;;14.20;99.90;;;;;;4970131;28;20303;-43
2023/03/30 11:17:36;;;;;;;6.63;1.85;;;14.30;99.90;;;;;;4971283;28;20174;-44
2023/03/30 11:20:22;;;;;;;4.90;2.30;;;14.50;99.90;;;;;;4971277;28;20197;-43
2023/03/30 11:22:55;;;;;;;8.50;1.40;;;14.50;99.90;;;;;;4971234;28;20174;-42
2023/03/30 11:25:28;;;;;;;3.13;1.50;;;14.30;99.90;;;;;;4971523;28;20180;-48
2023/03/30 11:28:20;;;;;;;2.88;1.30;;;14.50;99.90;;;;;;4990609;28;20626;-51
2023/03/30 11:30:47;;;;;;;5.60;1.35;;;14.80;99.90;;;;;;4990556;28;20168;-48
2023/03/30 11:33:27;;;;;;;7.88;1.25;;;14.90;99.90;;;;;;4990434;28;20632;-48
2023/03/30 11:36:01;;;;;;;3.85;1.52;;;15.10;99.90;;;;;;4990166;28;20179;-51
2023/03/30 11:38:55;;;;;;;4.28;1.65;;;15.40;99.90;;;;;;4990752;28;20258;-49
2023/03/30 11:41:37;;;;;;;5.72;1.50;;;15.10;99.90;;;;;;4990341;28;20183;-46
2023/03/30 11:44:03;;;;;;;5.00;1.73;;;15.10;99.90;;;;;;4990333;28;20161;-48
2023/03/30 11:46:39;;;;;;;4.50;1.92;;;14.90;99.90;;;;;;4978417;28;20185;-45
2023/03/30 11:49:30;;;;;;;8.23;1.63;;;14.70;99.90;;;;;;4987788;28;20295;-45
2023/03/30 11:52:11;;;;;;;4.90;1.92;;;15.00;99.90;;;;;;4990334;28;20172;-46
2023/03/30 11:55:04;;;;;;;5.88;1.70;;;15.30;99.90;;;;;;4990059;28;20168;-44
2023/03/30 11:57:43;;;;;;;5.68;1.63;;;15.30;99.90;;;;;;4951406;28;20170;-47
2023/03/30 12:00:46;;;;;;;3.08;1.50;;;15.30;99.90;;;;;;4951327;28;20194;-50
2023/03/30 12:03:17;;;;;;;3.45;1.42;;;15.10;99.90;;;;;;4950843;28;20170;-49
2023/03/30 12:06:05;;;;;;;6.18;1.33;;;15.10;99.90;;;;;;4967006;28;20215;-48
2023/03/30 12:08:42;;;;;;;2.85;1.27;;;14.90;99.90;;;;;;4989798;28;20311;-46
2023/03/30 12:11:31;;;;;;;8.77;2.03;;;14.80;99.90;;;;;;4989926;28;20628;-47
2023/03/30 12:13:58;;;;;;;3.08;1.48;;;14.40;99.90;;;;;;4988875;28;20253;-44
2023/03/30 12:16:45;;;;;;;4.50;1.27;;;14.20;99.90;;;;;;4989077;28;20176;-44
2023/03/30 12:19:18;;;;;;;10.15;2.22;;;14.10;99.90;;;;;;4988583;28;20648;-47
2023/03/30 12:21:52;;;;;;;3.05;2.13;;;14.00;99.90;;;;;;4989639;28;20173;-48
2023/03/30 12:24:28;;;;;;;5.28;2.50;;;13.90;99.90;;;;;;4989756;28;20753;-49
2023/03/30 12:26:54;;;;;;;9.18;1.85;;;;;;;;;;4969073;28;20625;-46
2023/03/30 12:29:19;;;;;;;7.45;2.20;;;13.80;99.90;;;;;;4970494;28;20216;-46
2023/03/30 12:32:03;;;;;;;15.50;3.08;;;13.80;99.90;;;;;;4970209;28;20640;-49
2023/03/30 12:34:35;;;;;;;10.07;2.00;;;13.80;99.90;;;;;;4969284;28;20657;-44
2023/03/30 12:37:06;;;;;;;11.82;2.90;;;13.80;99.90;;;;;;4970032;28;20166;-50
2023/03/30 12:39:53;;;;;;;8.63;2.00;;;13.80;99.90;;;;;;4970222;28;20512;-48
2023/03/30 12:42:25;;;;;;;6.20;2.90;;;13.80;99.90;;;;;;4970115;28;20166;-52
2023/03/30 12:45:14;;;;;;;6.97;2.08;;;13.60;99.90;;;;;;4970570;28;20178;-49
2023/03/30 12:47:49;;;;;;;4.82;2.08;;;13.40;99.90;;;;;;4969351;28;20169;-43
2023/03/30 12:50:15;;;;;;;2.88;1.33;;;;;;;;;;4968670;28;20212;-43
2023/03/30 12:52:53;;;;;;;2.55;1.10;;;13.20;99.90;;;;;;4969652;28;20197;-44
2023/03/30 12:55:25;;;;;;;4.25;1.00;;;13.10;99.90;;;;;;4969640;28;20644;-44
2023/03/30 12:58:25;;;;;;;3.25;1.20;;;13.00;99.90;;;;;;4969536;28;20629;-44
2023/03/30 13:00:53;;;;;;;1.83;1.15;;;12.80;99.90;;;;;;4969237;28;20653;-45
2023/03/30 13:03:57;;;;;;;4.70;1.00;;;12.80;99.90;;;;;;4969374;28;20172;-44
2023/03/30 13:06:23;;;;;;;3.00;1.10;;;13.50;99.90;;;;;;5008980;28;20233;-44
2023/03/30 13:08:54;;;;;;;3.40;0.93;;;13.60;99.90;;;;;;5008473;28;20228;-46
2023/03/30 13:11:21;;;;;;;1.52;1.00;;;13.40;99.90;;;;;;4989445;28;20181;-44
2023/03/30 13:13:58;;;;;;;2.33;1.15;;;13.50;99.90;;;;;;4969423;28;20181;-44